sensor_id;sensor_type;location;lat;lon;timestamp;P1;durP1;ratioP1;P2;durP2;ratioP2
1751;SDS011;873;47.696;8.068;2024-03-23T00:56:17;1.07;;;0.67;;
1751;SDS011;873;47.696;8.068;2024-03-23T00:58:43;1.03;;;0.87;;
1751;SDS011;873;47.696;8.068;2024-03-23T01:01:08;1.27;;;0.70;;
1751;SDS011;873;47.696;8.068;2024-03-23T01:03:34;0.90;;;0.50;;
1751;SDS011;873;47.696;8.068;2024-03-23T01:06:00;1.63;;;0.77;;
1751;SDS011;873;47.696;8.068;2024-03-23T01:08:26;1.17;;;0.70;;
1751;SDS011;873;47.696;8.068;2024-03-23T01:10:58;1.97;;;0.83;;
1751;SDS011;873;47.696;8.068;2024-03-23T01:13:24;1.90;;;0.83;;
1751;SDS011;873;47.696;8.068;2024-03-23T01:15:50;0.80;;;0.80;;
1751;SDS011;873;47.696;8.068;2024-03-23T01:18:19;1.00;;;0.67;;
1751;SDS011;873;47.696;8.068;2024-03-23T01:20:46;1.00;;;0.70;;
1751;SDS011;873;47.696;8.068;2024-03-23T01:23:11;1.20;;;0.87;;
1751;SDS011;873;47.696;8.068;2024-03-23T01:25:37;1.17;;;0.73;;
1751;SDS011;873;47.696;8.068;2024-03-23T01:28:03;0.93;;;0.80;;
1751;SDS011;873;47.696;8.068;2024-03-23T01:30:29;1.10;;;0.70;;
1751;SDS011;873;47.696;8.068;2024-03-23T01:32:55;1.10;;;0.70;;
1751;SDS011;873;47.696;8.068;2024-03-23T01:35:21;0.97;;;0.83;;
1751;SDS011;873;47.696;8.068;2024-03-23T01:37:47;1.17;;;0.67;;
1751;SDS011;873;47.696;8.068;2024-03-23T01:40:12;0.93;;;0.80;;
1751;SDS011;873;47.696;8.068;2024-03-23T01:42:41;0.80;;;0.73;;
1751;SDS011;873;47.696;8.068;2024-03-23T01:45:07;2.93;;;1.27;;
1751;SDS011;873;47.696;8.068;2024-03-23T01:47:34;1.20;;;0.87;;
1751;SDS011;873;47.696;8.068;2024-03-23T01:50:00;1.47;;;0.93;;
1751;SDS011;873;47.696;8.068;2024-03-23T01:52:29;1.47;;;1.00;;
1751;SDS011;873;47.696;8.068;2024-03-23T01:54:55;0.80;;;0.70;;
1751;SDS011;873;47.696;8.068;2024-03-23T01:57:21;1.53;;;0.80;;
1751;SDS011;873;47.696;8.068;2024-03-23T01:59:47;0.73;;;0.47;;
1751;SDS011;873;47.696;8.068;2024-03-23T02:02:13;1.43;;;1.00;;
1751;SDS011;873;47.696;8.068;2024-03-23T02:04:39;1.30;;;1.20;;
1751;SDS011;873;47.696;8.068;2024-03-23T02:07:06;0.90;;;0.80;;
1751;SDS011;873;47.696;8.068;2024-03-23T02:09:32;1.57;;;1.00;;
1751;SDS011;873;47.696;8.068;2024-03-23T02:11:58;1.20;;;1.07;;
1751;SDS011;873;47.696;8.068;2024-03-23T02:14:24;1.70;;;1.00;;
1751;SDS011;873;47.696;8.068;2024-03-23T02:16:50;3.73;;;1.27;;
1751;SDS011;873;47.696;8.068;2024-03-23T02:19:16;1.37;;;1.23;;
1751;SDS011;873;47.696;8.068;2024-03-23T02:21:42;1.87;;;1.27;;
1751;SDS011;873;47.696;8.068;2024-03-23T02:24:09;1.30;;;1.10;;
1751;SDS011;873;47.696;8.068;2024-03-23T02:26:35;3.40;;;1.00;;
1751;SDS011;873;47.696;8.068;2024-03-23T02:29:00;1.73;;;0.80;;
1751;SDS011;873;47.696;8.068;2024-03-23T02:31:26;1.53;;;1.30;;
1751;SDS011;873;47.696;8.068;2024-03-23T02:33:52;1.47;;;0.93;;
1751;SDS011;873;47.696;8.068;2024-03-23T02:36:18;2.10;;;1.30;;
1751;SDS011;873;47.696;8.068;2024-03-23T02:38:43;1.63;;;1.13;;
1751;SDS011;873;47.696;8.068;2024-03-23T02:41:10;2.37;;;1.03;;
1751;SDS011;873;47.696;8.068;2024-03-23T02:43:35;2.17;;;1.23;;
1751;SDS011;873;47.696;8.068;2024-03-23T02:46:01;2.93;;;1.40;;
1751;SDS011;873;47.696;8.068;2024-03-23T02:48:28;3.60;;;1.17;;
1751;SDS011;873;47.696;8.068;2024-03-23T02:50:53;2.27;;;1.27;;
1751;SDS011;873;47.696;8.068;2024-03-23T02:53:19;1.10;;;0.80;;
1751;SDS011;873;47.696;8.068;2024-03-23T02:55:45;2.17;;;1.47;;
1751;SDS011;873;47.696;8.068;2024-03-23T02:58:10;1.07;;;0.90;;
1751;SDS011;873;47.696;8.068;2024-03-23T03:00:36;1.80;;;1.20;;
1751;SDS011;873;47.696;8.068;2024-03-23T03:03:02;1.43;;;0.90;;
1751;SDS011;873;47.696;8.068;2024-03-23T03:05:28;2.10;;;1.20;;
1751;SDS011;873;47.696;8.068;2024-03-23T03:07:54;1.20;;;1.10;;
1751;SDS011;873;47.696;8.068;2024-03-23T03:10:19;2.13;;;1.30;;
1751;SDS011;873;47.696;8.068;2024-03-23T03:12:45;5.67;;;1.17;;
1751;SDS011;873;47.696;8.068;2024-03-23T03:15:11;2.80;;;1.37;;
1751;SDS011;873;47.696;8.068;2024-03-23T03:17:36;2.17;;;1.07;;
1751;SDS011;873;47.696;8.068;2024-03-23T03:20:02;1.67;;;1.10;;
1751;SDS011;873;47.696;8.068;2024-03-23T03:22:29;3.40;;;1.60;;
1751;SDS011;873;47.696;8.068;2024-03-23T03:24:55;1.40;;;1.07;;
1751;SDS011;873;47.696;8.068;2024-03-23T03:27:20;1.73;;;1.40;;
1751;SDS011;873;47.696;8.068;2024-03-23T03:29:47;2.80;;;1.57;;
1751;SDS011;873;47.696;8.068;2024-03-23T03:32:13;2.33;;;1.50;;
1751;SDS011;873;47.696;8.068;2024-03-23T03:34:39;1.80;;;1.37;;
1751;SDS011;873;47.696;8.068;2024-03-23T03:37:04;2.70;;;1.40;;
1751;SDS011;873;47.696;8.068;2024-03-23T03:39:30;1.47;;;1.30;;
1751;SDS011;873;47.696;8.068;2024-03-23T03:41:56;1.77;;;1.37;;
1751;SDS011;873;47.696;8.068;2024-03-23T03:44:22;1.07;;;0.97;;
1751;SDS011;873;47.696;8.068;2024-03-23T03:46:47;1.23;;;1.13;;
1751;SDS011;873;47.696;8.068;2024-03-23T03:49:13;2.73;;;1.13;;
1751;SDS011;873;47.696;8.068;2024-03-23T03:51:38;1.93;;;1.37;;
1751;SDS011;873;47.696;8.068;2024-03-23T03:54:04;1.87;;;1.30;;
1751;SDS011;873;47.696;8.068;2024-03-23T03:56:29;1.63;;;1.40;;
1751;SDS011;873;47.696;8.068;2024-03-23T03:58:55;1.93;;;1.43;;
1751;SDS011;873;47.696;8.068;2024-03-23T04:01:21;1.80;;;1.10;;
1751;SDS011;873;47.696;8.068;2024-03-23T04:03:46;1.40;;;1.30;;
1751;SDS011;873;47.696;8.068;2024-03-23T04:06:15;1.43;;;1.13;;
1751;SDS011;873;47.696;8.068;2024-03-23T04:08:44;1.33;;;1.23;;
1751;SDS011;873;47.696;8.068;2024-03-23T04:11:09;2.93;;;1.20;;
1751;SDS011;873;47.696;8.068;2024-03-23T04:13:35;5.67;;;1.43;;
1751;SDS011;873;47.696;8.068;2024-03-23T04:16:01;1.50;;;1.20;;
1751;SDS011;873;47.696;8.068;2024-03-23T04:18:27;2.37;;;1.47;;
1751;SDS011;873;47.696;8.068;2024-03-23T04:20:52;2.30;;;1.07;;
1751;SDS011;873;47.696;8.068;2024-03-23T04:23:18;1.47;;;1.10;;
1751;SDS011;873;47.696;8.068;2024-03-23T04:25:44;1.33;;;1.00;;
1751;SDS011;873;47.696;8.068;2024-03-23T04:28:09;1.70;;;1.10;;
1751;SDS011;873;47.696;8.068;2024-03-23T04:30:35;4.43;;;0.80;;
1751;SDS011;873;47.696;8.068;2024-03-23T04:33:02;3.17;;;1.20;;
1751;SDS011;873;47.696;8.068;2024-03-23T04:35:27;2.87;;;1.50;;
1751;SDS011;873;47.696;8.068;2024-03-23T04:37:53;1.30;;;1.07;;
1751;SDS011;873;47.696;8.068;2024-03-23T04:40:20;2.07;;;0.80;;
1751;SDS011;873;47.696;8.068;2024-03-23T04:42:46;1.27;;;1.07;;
1751;SDS011;873;47.696;8.068;2024-03-23T04:45:12;3.60;;;1.40;;
1751;SDS011;873;47.696;8.068;2024-03-23T04:47:38;1.37;;;1.20;;
1751;SDS011;873;47.696;8.068;2024-03-23T04:50:04;3.20;;;1.30;;
1751;SDS011;873;47.696;8.068;2024-03-23T04:52:30;1.63;;;1.00;;
1751;SDS011;873;47.696;8.068;2024-03-23T04:54:56;2.37;;;1.30;;
1751;SDS011;873;47.696;8.068;2024-03-23T04:57:21;2.37;;;1.97;;
1751;SDS011;873;47.696;8.068;2024-03-23T04:59:47;7.83;;;2.10;;
1751;SDS011;873;47.696;8.068;2024-03-23T05:02:13;4.60;;;2.60;;
1751;SDS011;873;47.696;8.068;2024-03-23T05:04:40;5.03;;;2.63;;
1751;SDS011;873;47.696;8.068;2024-03-23T05:07:06;5.33;;;3.27;;
1751;SDS011;873;47.696;8.068;2024-03-23T05:09:32;6.03;;;3.43;;
1751;SDS011;873;47.696;8.068;2024-03-23T05:11:58;4.77;;;3.03;;
1751;SDS011;873;47.696;8.068;2024-03-23T05:14:25;2.77;;;2.33;;
1751;SDS011;873;47.696;8.068;2024-03-23T05:16:51;5.93;;;3.07;;
1751;SDS011;873;47.696;8.068;2024-03-23T05:19:17;5.77;;;3.13;;
1751;SDS011;873;47.696;8.068;2024-03-23T05:21:43;4.70;;;2.70;;
1751;SDS011;873;47.696;8.068;2024-03-23T05:24:09;4.17;;;2.67;;
1751;SDS011;873;47.696;8.068;2024-03-23T05:26:34;3.37;;;2.13;;
1751;SDS011;873;47.696;8.068;2024-03-23T05:29:01;3.80;;;2.53;;
1751;SDS011;873;47.696;8.068;2024-03-23T05:31:29;4.00;;;2.20;;
1751;SDS011;873;47.696;8.068;2024-03-23T05:33:55;5.97;;;2.50;;
1751;SDS011;873;47.696;8.068;2024-03-23T05:36:21;3.13;;;2.10;;
1751;SDS011;873;47.696;8.068;2024-03-23T05:38:49;3.03;;;2.47;;
1751;SDS011;873;47.696;8.068;2024-03-23T05:41:15;6.73;;;3.50;;
1751;SDS011;873;47.696;8.068;2024-03-23T05:43:41;3.80;;;3.13;;
1751;SDS011;873;47.696;8.068;2024-03-23T05:46:07;3.20;;;2.40;;
1751;SDS011;873;47.696;8.068;2024-03-23T05:48:35;3.13;;;2.77;;
1751;SDS011;873;47.696;8.068;2024-03-23T05:51:01;4.67;;;2.67;;
1751;SDS011;873;47.696;8.068;2024-03-23T05:53:27;3.17;;;2.23;;
1751;SDS011;873;47.696;8.068;2024-03-23T05:56:03;6.93;;;2.93;;
1751;SDS011;873;47.696;8.068;2024-03-23T05:58:29;4.57;;;2.77;;
1751;SDS011;873;47.696;8.068;2024-03-23T06:00:57;4.03;;;2.73;;
1751;SDS011;873;47.696;8.068;2024-03-23T06:03:24;3.10;;;2.23;;
1751;SDS011;873;47.696;8.068;2024-03-23T06:05:50;3.40;;;2.57;;
1751;SDS011;873;47.696;8.068;2024-03-23T06:08:16;5.03;;;2.23;;
1751;SDS011;873;47.696;8.068;2024-03-23T06:10:42;3.20;;;2.30;;
1751;SDS011;873;47.696;8.068;2024-03-23T06:13:07;4.70;;;2.10;;
1751;SDS011;873;47.696;8.068;2024-03-23T06:15:33;2.63;;;1.80;;
1751;SDS011;873;47.696;8.068;2024-03-23T06:18:03;4.10;;;2.40;;
1751;SDS011;873;47.696;8.068;2024-03-23T06:20:33;3.33;;;2.27;;
1751;SDS011;873;47.696;8.068;2024-03-23T06:22:59;3.43;;;2.50;;
1751;SDS011;873;47.696;8.068;2024-03-23T06:25:26;3.30;;;2.57;;
1751;SDS011;873;47.696;8.068;2024-03-23T06:27:51;2.67;;;2.23;;
1751;SDS011;873;47.696;8.068;2024-03-23T06:30:17;3.00;;;2.70;;
1751;SDS011;873;47.696;8.068;2024-03-23T06:32:43;2.60;;;1.70;;
1751;SDS011;873;47.696;8.068;2024-03-23T06:35:08;5.60;;;3.40;;
1751;SDS011;873;47.696;8.068;2024-03-23T06:37:37;4.70;;;3.33;;
1751;SDS011;873;47.696;8.068;2024-03-23T06:40:04;4.80;;;2.93;;
1751;SDS011;873;47.696;8.068;2024-03-23T06:42:33;3.50;;;2.70;;
1751;SDS011;873;47.696;8.068;2024-03-23T06:44:59;7.03;;;3.87;;
1751;SDS011;873;47.696;8.068;2024-03-23T06:47:24;3.50;;;2.67;;
1751;SDS011;873;47.696;8.068;2024-03-23T06:49:50;4.10;;;2.83;;
1751;SDS011;873;47.696;8.068;2024-03-23T06:52:16;4.37;;;2.40;;
1751;SDS011;873;47.696;8.068;2024-03-23T06:54:42;4.53;;;2.80;;
1751;SDS011;873;47.696;8.068;2024-03-23T06:57:10;4.00;;;3.43;;
1751;SDS011;873;47.696;8.068;2024-03-23T06:59:37;6.07;;;4.00;;
1751;SDS011;873;47.696;8.068;2024-03-23T07:02:04;7.23;;;3.23;;
1751;SDS011;873;47.696;8.068;2024-03-23T07:04:30;3.10;;;2.67;;
1751;SDS011;873;47.696;8.068;2024-03-23T07:06:56;3.57;;;2.80;;
1751;SDS011;873;47.696;8.068;2024-03-23T07:09:21;5.97;;;3.80;;
1751;SDS011;873;47.696;8.068;2024-03-23T07:11:51;6.83;;;2.87;;
1751;SDS011;873;47.696;8.068;2024-03-23T07:14:18;5.67;;;2.90;;
1751;SDS011;873;47.696;8.068;2024-03-23T07:16:44;6.03;;;3.33;;
1751;SDS011;873;47.696;8.068;2024-03-23T07:19:09;4.57;;;2.80;;
1751;SDS011;873;47.696;8.068;2024-03-23T07:21:35;2.23;;;1.57;;
1751;SDS011;873;47.696;8.068;2024-03-23T07:24:01;3.53;;;2.60;;
1751;SDS011;873;47.696;8.068;2024-03-23T07:26:26;4.07;;;1.90;;
1751;SDS011;873;47.696;8.068;2024-03-23T07:28:55;2.90;;;2.07;;
1751;SDS011;873;47.696;8.068;2024-03-23T07:31:21;2.20;;;1.73;;
1751;SDS011;873;47.696;8.068;2024-03-23T07:33:48;1.07;;;0.67;;
1751;SDS011;873;47.696;8.068;2024-03-23T07:36:14;2.40;;;1.67;;
1751;SDS011;873;47.696;8.068;2024-03-23T07:38:40;1.00;;;0.63;;
1751;SDS011;873;47.696;8.068;2024-03-23T07:41:10;0.90;;;0.50;;
1751;SDS011;873;47.696;8.068;2024-03-23T07:43:37;1.87;;;0.77;;
1751;SDS011;873;47.696;8.068;2024-03-23T07:46:04;1.40;;;0.80;;
1751;SDS011;873;47.696;8.068;2024-03-23T07:48:30;0.97;;;0.57;;
1751;SDS011;873;47.696;8.068;2024-03-23T07:51:03;0.70;;;0.40;;
1751;SDS011;873;47.696;8.068;2024-03-23T07:53:33;0.60;;;0.60;;
1751;SDS011;873;47.696;8.068;2024-03-23T07:56:01;1.97;;;0.60;;
1751;SDS011;873;47.696;8.068;2024-03-23T07:58:29;0.60;;;0.37;;
1751;SDS011;873;47.696;8.068;2024-03-23T08:00:55;0.20;;;0.20;;
1751;SDS011;873;47.696;8.068;2024-03-23T08:03:22;0.57;;;0.30;;
1751;SDS011;873;47.696;8.068;2024-03-23T08:05:48;0.57;;;0.43;;
1751;SDS011;873;47.696;8.068;2024-03-23T08:08:15;0.60;;;0.17;;
1751;SDS011;873;47.696;8.068;2024-03-23T08:10:51;0.30;;;0.10;;
1751;SDS011;873;47.696;8.068;2024-03-23T08:13:17;0.57;;;0.17;;
1751;SDS011;873;47.696;8.068;2024-03-23T08:15:42;0.00;;;0.00;;
1751;SDS011;873;47.696;8.068;2024-03-23T08:18:09;0.10;;;0.10;;
1751;SDS011;873;47.696;8.068;2024-03-23T08:20:35;2.70;;;0.40;;
1751;SDS011;873;47.696;8.068;2024-03-23T08:23:01;0.10;;;0.10;;
1751;SDS011;873;47.696;8.068;2024-03-23T08:25:26;0.80;;;0.20;;
1751;SDS011;873;47.696;8.068;2024-03-23T08:27:52;2.23;;;0.30;;
1751;SDS011;873;47.696;8.068;2024-03-23T08:30:18;0.53;;;0.10;;
1751;SDS011;873;47.696;8.068;2024-03-23T08:32:43;0.27;;;0.20;;
1751;SDS011;873;47.696;8.068;2024-03-23T08:35:09;4.43;;;0.30;;
1751;SDS011;873;47.696;8.068;2024-03-23T08:37:35;0.17;;;0.17;;
1751;SDS011;873;47.696;8.068;2024-03-23T08:40:00;1.80;;;0.40;;
1751;SDS011;873;47.696;8.068;2024-03-23T08:42:26;0.40;;;0.40;;
1751;SDS011;873;47.696;8.068;2024-03-23T08:44:52;0.77;;;0.40;;
1751;SDS011;873;47.696;8.068;2024-03-23T08:47:17;2.90;;;0.23;;
1751;SDS011;873;47.696;8.068;2024-03-23T08:49:44;1.60;;;0.37;;
1751;SDS011;873;47.696;8.068;2024-03-23T08:52:10;0.23;;;0.20;;
1751;SDS011;873;47.696;8.068;2024-03-23T08:54:35;0.47;;;0.37;;
1751;SDS011;873;47.696;8.068;2024-03-23T08:57:01;0.87;;;0.50;;
1751;SDS011;873;47.696;8.068;2024-03-23T08:59:26;2.23;;;0.80;;
1751;SDS011;873;47.696;8.068;2024-03-23T09:01:52;0.50;;;0.40;;
1751;SDS011;873;47.696;8.068;2024-03-23T09:04:18;0.63;;;0.20;;
1751;SDS011;873;47.696;8.068;2024-03-23T09:06:44;0.40;;;0.40;;
1751;SDS011;873;47.696;8.068;2024-03-23T09:09:09;2.73;;;0.70;;
1751;SDS011;873;47.696;8.068;2024-03-23T09:11:35;1.50;;;0.50;;
1751;SDS011;873;47.696;8.068;2024-03-23T09:14:00;0.87;;;0.60;;
1751;SDS011;873;47.696;8.068;2024-03-23T09:16:26;0.87;;;0.50;;
1751;SDS011;873;47.696;8.068;2024-03-23T09:18:52;2.10;;;0.37;;
1751;SDS011;873;47.696;8.068;2024-03-23T09:21:17;1.97;;;0.90;;
1751;SDS011;873;47.696;8.068;2024-03-23T09:23:43;1.43;;;0.80;;
1751;SDS011;873;47.696;8.068;2024-03-23T09:26:11;1.50;;;0.33;;
1751;SDS011;873;47.696;8.068;2024-03-23T09:28:36;1.17;;;0.57;;
1751;SDS011;873;47.696;8.068;2024-03-23T09:31:02;1.57;;;0.77;;
1751;SDS011;873;47.696;8.068;2024-03-23T09:33:32;5.03;;;0.87;;
1751;SDS011;873;47.696;8.068;2024-03-23T09:36:02;0.90;;;0.50;;
1751;SDS011;873;47.696;8.068;2024-03-23T09:38:28;1.73;;;0.70;;
1751;SDS011;873;47.696;8.068;2024-03-23T09:40:54;1.90;;;0.50;;
1751;SDS011;873;47.696;8.068;2024-03-23T09:43:19;1.07;;;0.37;;
1751;SDS011;873;47.696;8.068;2024-03-23T09:45:45;3.80;;;0.40;;
1751;SDS011;873;47.696;8.068;2024-03-23T09:48:11;3.20;;;0.73;;
1751;SDS011;873;47.696;8.068;2024-03-23T09:50:41;2.43;;;0.60;;
1751;SDS011;873;47.696;8.068;2024-03-23T09:53:09;3.23;;;0.90;;
1751;SDS011;873;47.696;8.068;2024-03-23T09:55:42;2.13;;;0.83;;
1751;SDS011;873;47.696;8.068;2024-03-23T09:58:12;1.80;;;0.93;;
1751;SDS011;873;47.696;8.068;2024-03-23T10:00:38;4.20;;;0.63;;
1751;SDS011;873;47.696;8.068;2024-03-23T10:03:04;2.37;;;0.80;;
1751;SDS011;873;47.696;8.068;2024-03-23T10:05:31;1.10;;;0.70;;
1751;SDS011;873;47.696;8.068;2024-03-23T10:07:59;4.00;;;1.03;;
1751;SDS011;873;47.696;8.068;2024-03-23T10:10:26;1.63;;;0.83;;
1751;SDS011;873;47.696;8.068;2024-03-23T10:12:51;1.43;;;0.83;;
1751;SDS011;873;47.696;8.068;2024-03-23T10:15:18;1.23;;;0.60;;
1751;SDS011;873;47.696;8.068;2024-03-23T10:17:45;2.90;;;0.90;;
1751;SDS011;873;47.696;8.068;2024-03-23T10:20:11;1.57;;;0.90;;
1751;SDS011;873;47.696;8.068;2024-03-23T10:22:37;2.20;;;1.00;;
1751;SDS011;873;47.696;8.068;2024-03-23T10:25:07;6.63;;;1.83;;
1751;SDS011;873;47.696;8.068;2024-03-23T10:27:33;3.30;;;0.50;;
1751;SDS011;873;47.696;8.068;2024-03-23T10:30:07;1.67;;;0.37;;
1751;SDS011;873;47.696;8.068;2024-03-23T10:32:37;2.73;;;1.10;;
1751;SDS011;873;47.696;8.068;2024-03-23T10:35:17;0.70;;;0.67;;
1751;SDS011;873;47.696;8.068;2024-03-23T10:37:44;0.87;;;0.47;;
1751;SDS011;873;47.696;8.068;2024-03-23T10:40:11;5.23;;;0.70;;
1751;SDS011;873;47.696;8.068;2024-03-23T10:42:38;1.20;;;0.80;;
1751;SDS011;873;47.696;8.068;2024-03-23T10:45:04;2.40;;;0.90;;
1751;SDS011;873;47.696;8.068;2024-03-23T10:47:31;1.93;;;1.03;;
1751;SDS011;873;47.696;8.068;2024-03-23T10:49:57;5.70;;;1.33;;
1751;SDS011;873;47.696;8.068;2024-03-23T10:52:23;1.37;;;0.63;;
1751;SDS011;873;47.696;8.068;2024-03-23T10:54:50;1.30;;;0.50;;
1751;SDS011;873;47.696;8.068;2024-03-23T10:57:17;0.53;;;0.50;;
1751;SDS011;873;47.696;8.068;2024-03-23T10:59:43;1.97;;;0.87;;
1751;SDS011;873;47.696;8.068;2024-03-23T11:02:18;2.73;;;1.10;;
1751;SDS011;873;47.696;8.068;2024-03-23T11:04:45;3.43;;;1.17;;
1751;SDS011;873;47.696;8.068;2024-03-23T11:07:32;4.03;;;0.50;;
1751;SDS011;873;47.696;8.068;2024-03-23T11:09:59;2.87;;;1.00;;
1751;SDS011;873;47.696;8.068;2024-03-23T11:12:25;1.93;;;0.60;;
1751;SDS011;873;47.696;8.068;2024-03-23T11:14:56;4.60;;;0.70;;
1751;SDS011;873;47.696;8.068;2024-03-23T11:17:25;6.30;;;0.97;;
1751;SDS011;873;47.696;8.068;2024-03-23T11:19:58;2.83;;;0.80;;
1751;SDS011;873;47.696;8.068;2024-03-23T11:22:44;2.93;;;1.23;;
1751;SDS011;873;47.696;8.068;2024-03-23T11:25:24;2.77;;;0.40;;
1751;SDS011;873;47.696;8.068;2024-03-23T11:27:54;3.77;;;0.93;;
1751;SDS011;873;47.696;8.068;2024-03-23T11:30:22;2.33;;;0.77;;
1751;SDS011;873;47.696;8.068;2024-03-23T11:32:53;1.80;;;0.80;;
1751;SDS011;873;47.696;8.068;2024-03-23T11:40:35;1.30;;;0.40;;
1751;SDS011;873;47.696;8.068;2024-03-23T11:43:09;0.30;;;0.30;;
1751;SDS011;873;47.696;8.068;2024-03-23T11:45:42;1.33;;;0.20;;
1751;SDS011;873;47.696;8.068;2024-03-23T11:48:12;0.47;;;0.27;;
1751;SDS011;873;47.696;8.068;2024-03-23T11:50:42;0.40;;;0.40;;
1751;SDS011;873;47.696;8.068;2024-03-23T11:53:12;0.20;;;0.10;;
1751;SDS011;873;47.696;8.068;2024-03-23T11:55:39;0.13;;;0.10;;
1751;SDS011;873;47.696;8.068;2024-03-23T11:58:06;0.87;;;0.10;;
1751;SDS011;873;47.696;8.068;2024-03-23T12:00:33;0.50;;;0.20;;
1751;SDS011;873;47.696;8.068;2024-03-23T12:03:00;0.87;;;0.60;;
1751;SDS011;873;47.696;8.068;2024-03-23T12:05:26;2.67;;;0.70;;
1751;SDS011;873;47.696;8.068;2024-03-23T12:07:52;3.03;;;0.27;;
1751;SDS011;873;47.696;8.068;2024-03-23T12:10:19;0.70;;;0.60;;
1751;SDS011;873;47.696;8.068;2024-03-23T12:12:44;3.67;;;0.93;;
1751;SDS011;873;47.696;8.068;2024-03-23T12:15:10;0.40;;;0.40;;
1751;SDS011;873;47.696;8.068;2024-03-23T12:17:37;2.23;;;1.00;;
1751;SDS011;873;47.696;8.068;2024-03-23T12:20:04;4.27;;;0.80;;
1751;SDS011;873;47.696;8.068;2024-03-23T12:22:30;0.63;;;0.43;;
1751;SDS011;873;47.696;8.068;2024-03-23T12:24:55;0.37;;;0.23;;
1751;SDS011;873;47.696;8.068;2024-03-23T12:27:21;0.57;;;0.27;;
1751;SDS011;873;47.696;8.068;2024-03-23T12:29:47;2.80;;;0.97;;
1751;SDS011;873;47.696;8.068;2024-03-23T12:32:13;1.00;;;0.60;;
1751;SDS011;873;47.696;8.068;2024-03-23T12:34:39;3.80;;;0.77;;
1751;SDS011;873;47.696;8.068;2024-03-23T12:37:06;6.57;;;1.07;;
1751;SDS011;873;47.696;8.068;2024-03-23T12:39:32;2.70;;;1.00;;
1751;SDS011;873;47.696;8.068;2024-03-23T12:41:57;3.10;;;0.90;;
1751;SDS011;873;47.696;8.068;2024-03-23T12:44:23;2.20;;;0.60;;
1751;SDS011;873;47.696;8.068;2024-03-23T12:46:48;5.03;;;1.70;;
1751;SDS011;873;47.696;8.068;2024-03-23T12:49:14;2.70;;;0.80;;
1751;SDS011;873;47.696;8.068;2024-03-23T12:51:45;1.33;;;0.70;;
1751;SDS011;873;47.696;8.068;2024-03-23T12:54:14;1.60;;;0.67;;
1751;SDS011;873;47.696;8.068;2024-03-23T12:56:39;5.93;;;1.03;;
1751;SDS011;873;47.696;8.068;2024-03-23T12:59:05;2.13;;;0.83;;
1751;SDS011;873;47.696;8.068;2024-03-23T13:01:30;2.10;;;1.00;;
1751;SDS011;873;47.696;8.068;2024-03-23T13:03:56;2.07;;;0.77;;
1751;SDS011;873;47.696;8.068;2024-03-23T13:06:22;0.77;;;0.27;;
1751;SDS011;873;47.696;8.068;2024-03-23T13:08:47;1.57;;;0.40;;
1751;SDS011;873;47.696;8.068;2024-03-23T13:11:15;3.13;;;0.53;;
1751;SDS011;873;47.696;8.068;2024-03-23T13:13:41;2.00;;;0.60;;
1751;SDS011;873;47.696;8.068;2024-03-23T13:16:07;1.90;;;1.00;;
1751;SDS011;873;47.696;8.068;2024-03-23T13:18:33;3.20;;;0.20;;
1751;SDS011;873;47.696;8.068;2024-03-23T13:20:58;1.90;;;0.40;;
1751;SDS011;873;47.696;8.068;2024-03-23T13:23:24;3.33;;;0.70;;
1751;SDS011;873;47.696;8.068;2024-03-23T13:25:53;0.57;;;0.47;;
1751;SDS011;873;47.696;8.068;2024-03-23T13:28:20;1.80;;;0.43;;
1751;SDS011;873;47.696;8.068;2024-03-23T13:30:53;3.43;;;0.80;;
1751;SDS011;873;47.696;8.068;2024-03-23T13:33:19;0.50;;;0.40;;
1751;SDS011;873;47.696;8.068;2024-03-23T13:35:48;1.13;;;0.40;;
1751;SDS011;873;47.696;8.068;2024-03-23T13:38:15;0.97;;;0.47;;
1751;SDS011;873;47.696;8.068;2024-03-23T13:40:48;5.47;;;0.80;;
1751;SDS011;873;47.696;8.068;2024-03-23T13:43:16;2.60;;;0.50;;
1751;SDS011;873;47.696;8.068;2024-03-23T13:45:42;2.73;;;0.80;;
1751;SDS011;873;47.696;8.068;2024-03-23T13:48:08;4.23;;;0.70;;
1751;SDS011;873;47.696;8.068;2024-03-23T13:50:33;2.67;;;0.77;;
1751;SDS011;873;47.696;8.068;2024-03-23T13:52:59;1.90;;;0.60;;
1751;SDS011;873;47.696;8.068;2024-03-23T13:55:25;3.27;;;0.60;;
1751;SDS011;873;47.696;8.068;2024-03-23T13:57:50;0.97;;;0.20;;
1751;SDS011;873;47.696;8.068;2024-03-23T14:00:16;3.10;;;0.83;;
1751;SDS011;873;47.696;8.068;2024-03-23T14:02:43;0.70;;;0.30;;
1751;SDS011;873;47.696;8.068;2024-03-23T14:05:09;3.67;;;0.60;;
1751;SDS011;873;47.696;8.068;2024-03-23T14:07:36;1.97;;;0.43;;
1751;SDS011;873;47.696;8.068;2024-03-23T14:10:05;4.20;;;1.00;;
1751;SDS011;873;47.696;8.068;2024-03-23T14:12:37;1.13;;;0.53;;
1751;SDS011;873;47.696;8.068;2024-03-23T14:15:06;0.73;;;0.43;;
1751;SDS011;873;47.696;8.068;2024-03-23T14:17:32;1.67;;;0.70;;
1751;SDS011;873;47.696;8.068;2024-03-23T14:19:57;0.50;;;0.47;;
1751;SDS011;873;47.696;8.068;2024-03-23T14:22:26;0.33;;;0.33;;
1751;SDS011;873;47.696;8.068;2024-03-23T14:24:53;4.23;;;0.43;;
1751;SDS011;873;47.696;8.068;2024-03-23T14:27:20;0.40;;;0.23;;
1751;SDS011;873;47.696;8.068;2024-03-23T14:29:46;3.10;;;0.70;;
1751;SDS011;873;47.696;8.068;2024-03-23T14:32:12;0.43;;;0.20;;
1751;SDS011;873;47.696;8.068;2024-03-23T14:34:38;0.80;;;0.33;;
1751;SDS011;873;47.696;8.068;2024-03-23T14:37:04;1.80;;;0.10;;
1751;SDS011;873;47.696;8.068;2024-03-23T14:39:31;1.20;;;0.33;;
1751;SDS011;873;47.696;8.068;2024-03-23T14:41:59;2.20;;;0.30;;
1751;SDS011;873;47.696;8.068;2024-03-23T14:44:28;1.57;;;0.23;;
1751;SDS011;873;47.696;8.068;2024-03-23T14:46:53;2.23;;;0.53;;
1751;SDS011;873;47.696;8.068;2024-03-23T14:49:20;2.00;;;0.63;;
1751;SDS011;873;47.696;8.068;2024-03-23T14:51:46;1.33;;;0.30;;
1751;SDS011;873;47.696;8.068;2024-03-23T14:54:11;1.33;;;0.30;;
1751;SDS011;873;47.696;8.068;2024-03-23T14:56:38;1.83;;;0.33;;
1751;SDS011;873;47.696;8.068;2024-03-23T14:59:04;1.00;;;0.30;;
1751;SDS011;873;47.696;8.068;2024-03-23T15:01:29;0.20;;;0.20;;
1751;SDS011;873;47.696;8.068;2024-03-23T15:03:55;1.80;;;0.30;;
1751;SDS011;873;47.696;8.068;2024-03-23T15:06:20;0.53;;;0.20;;
1751;SDS011;873;47.696;8.068;2024-03-23T15:08:46;2.63;;;0.40;;
1751;SDS011;873;47.696;8.068;2024-03-23T15:11:11;0.47;;;0.20;;
1751;SDS011;873;47.696;8.068;2024-03-23T15:13:43;0.30;;;0.20;;
1751;SDS011;873;47.696;8.068;2024-03-23T15:16:09;0.10;;;0.10;;
1751;SDS011;873;47.696;8.068;2024-03-23T15:18:35;2.73;;;0.30;;
1751;SDS011;873;47.696;8.068;2024-03-23T15:21:01;0.40;;;0.23;;
1751;SDS011;873;47.696;8.068;2024-03-23T15:23:29;1.47;;;0.43;;
1751;SDS011;873;47.696;8.068;2024-03-23T15:28:23;0.73;;;0.50;;
1751;SDS011;873;47.696;8.068;2024-03-23T15:30:51;1.40;;;0.20;;
1751;SDS011;873;47.696;8.068;2024-03-23T15:33:17;0.30;;;0.20;;
1751;SDS011;873;47.696;8.068;2024-03-23T15:35:42;2.20;;;0.37;;
1751;SDS011;873;47.696;8.068;2024-03-23T15:38:08;0.20;;;0.20;;
1751;SDS011;873;47.696;8.068;2024-03-23T15:40:35;2.30;;;0.87;;
1751;SDS011;873;47.696;8.068;2024-03-23T15:43:00;1.17;;;0.53;;
1751;SDS011;873;47.696;8.068;2024-03-23T15:45:26;0.93;;;0.60;;
1751;SDS011;873;47.696;8.068;2024-03-23T15:47:52;2.03;;;0.30;;
1751;SDS011;873;47.696;8.068;2024-03-23T15:50:17;0.53;;;0.10;;
1751;SDS011;873;47.696;8.068;2024-03-23T15:52:43;1.73;;;0.37;;
1751;SDS011;873;47.696;8.068;2024-03-23T15:55:08;1.97;;;0.20;;
1751;SDS011;873;47.696;8.068;2024-03-23T15:57:35;1.33;;;0.30;;
1751;SDS011;873;47.696;8.068;2024-03-23T16:00:02;0.20;;;0.10;;
1751;SDS011;873;47.696;8.068;2024-03-23T16:02:27;0.80;;;0.10;;
1751;SDS011;873;47.696;8.068;2024-03-23T16:04:53;0.37;;;0.13;;
1751;SDS011;873;47.696;8.068;2024-03-23T16:07:20;3.93;;;0.40;;
1751;SDS011;873;47.696;8.068;2024-03-23T16:09:46;0.10;;;0.10;;
1751;SDS011;873;47.696;8.068;2024-03-23T16:12:11;1.10;;;0.43;;
1751;SDS011;873;47.696;8.068;2024-03-23T16:14:37;0.93;;;0.50;;
1751;SDS011;873;47.696;8.068;2024-03-23T16:17:03;1.37;;;0.50;;
1751;SDS011;873;47.696;8.068;2024-03-23T16:19:28;1.67;;;0.50;;
1751;SDS011;873;47.696;8.068;2024-03-23T16:21:55;5.73;;;0.40;;
1751;SDS011;873;47.696;8.068;2024-03-23T16:24:22;2.33;;;0.70;;
1751;SDS011;873;47.696;8.068;2024-03-23T16:26:48;0.60;;;0.30;;
1751;SDS011;873;47.696;8.068;2024-03-23T16:29:14;1.40;;;0.50;;